createdAt,value
2022-10-03T00:01:47.864Z,101711.22
2022-10-03T00:04:30.621Z,101717.22
2022-10-03T00:07:44.399Z,101707.19
2022-10-03T00:11:11.533Z,101701.78
2022-10-03T00:13:56.523Z,101704.47
2022-10-03T00:16:54.118Z,101703.63
2022-10-03T00:19:29.746Z,101705.47
2022-10-03T00:22:31.885Z,101695.19
2022-10-03T00:25:20.319Z,101704.03
2022-10-03T00:28:13.711Z,101698.63
2022-10-03T00:31:13.930Z,101693.47
2022-10-03T00:34:05.537Z,101697.13
2022-10-03T00:36:41.328Z,101696.66
2022-10-03T00:39:48.849Z,101693.34
2022-10-03T00:43:17.302Z,101702.53
2022-10-03T00:46:21.368Z,101695.44
2022-10-03T00:49:32.462Z,101704.47
2022-10-03T00:52:38.764Z,101705.38
2022-10-03T00:55:17.354Z,101713.31
2022-10-03T00:57:56.036Z,101710.75
2022-10-03T01:00:27.413Z,101712.34
2022-10-03T01:03:38.939Z,101709.41
2022-10-03T01:06:30.659Z,101716.59
2022-10-03T01:09:33.955Z,101718.94
2022-10-03T01:12:22.991Z,101725.56
2022-10-03T01:15:11.181Z,101721.25
2022-10-03T01:18:09.619Z,101734.63
2022-10-03T01:21:05.696Z,101729.72
2022-10-03T01:24:08.031Z,101737.81
2022-10-03T01:26:58.847Z,101725.56
2022-10-03T01:30:01.649Z,101723.94
2022-10-03T01:32:43.265Z,101725.78
2022-10-03T01:35:40.477Z,101742.44
2022-10-03T01:38:21.121Z,101735.81
2022-10-03T01:41:15.207Z,101738.75
2022-10-03T01:43:50.558Z,101733.84
2022-10-03T01:46:38.639Z,101736.28
2022-10-03T01:49:27.668Z,101743.16
2022-10-03T01:52:18.305Z,101741.91
2022-10-03T01:54:50.913Z,101737.75
2022-10-03T01:58:01.213Z,101738.25
2022-10-03T02:00:39.612Z,101733.94
2022-10-03T02:03:25.443Z,101728.81
2022-10-03T02:06:10.365Z,101726.22
2022-10-03T02:09:11.689Z,101733.06
2022-10-03T02:11:55.206Z,101722.91
2022-10-03T02:14:34.998Z,101720.09
2022-10-03T02:17:38.201Z,101726.44
2022-10-03T02:20:23.936Z,101718.50
2022-10-03T02:22:55.325Z,101711.28
2022-10-03T02:25:31.470Z,101730.13
2022-10-03T02:28:10.405Z,101712.63
2022-10-03T02:31:14.620Z,101713.38
2022-10-03T02:34:41.789Z,101711.88
2022-10-03T02:37:49.395Z,101719.34
2022-10-03T02:40:54.241Z,101715.66
2022-10-03T02:44:01.467Z,101722.03
2022-10-03T02:46:49.503Z,101712.84
2022-10-03T02:49:43.122Z,101705.13
2022-10-03T02:52:49.900Z,101706.09
2022-10-03T02:55:38.576Z,101701.81
2022-10-03T02:58:27.703Z,101696.31
2022-10-03T03:01:25.045Z,101689.31
2022-10-03T03:04:29.134Z,101691.16
2022-10-03T03:07:38.366Z,101694.44
2022-10-03T03:10:45.316Z,101696.16
2022-10-03T03:14:06.264Z,101685.53
2022-10-03T03:16:57.302Z,101690.53
2022-10-03T03:19:56.564Z,101692.13
2022-10-03T03:22:35.474Z,101687.84
2022-10-03T03:25:39.417Z,101693.97
2022-10-03T03:28:25.319Z,101695.19
2022-10-03T03:31:09.655Z,101693.84
2022-10-03T03:34:07.920Z,101697.78
2022-10-03T03:36:48.133Z,101694.47
2022-10-03T03:39:36.048Z,101697.28
2022-10-03T03:42:34.991Z,101700.94
2022-10-03T03:46:00.985Z,101694.47
2022-10-03T03:49:00.141Z,101697.28
2022-10-03T03:52:07.109Z,101693.50
2022-10-03T03:55:06.379Z,101696.91
2022-10-03T03:58:02.532Z,101691.41
2022-10-03T04:00:59.943Z,101698.28
2022-10-03T04:04:23.271Z,101699.78
2022-10-03T04:07:24.009Z,101692.44
2022-10-03T04:10:15.806Z,101687.91
2022-10-03T04:12:49.082Z,101696.59
2022-10-03T04:15:49.365Z,101684.84
2022-10-03T04:18:59.645Z,101676.53
2022-10-03T04:21:51.266Z,101679.97
2022-10-03T04:24:39.409Z,101676.31
2022-10-03T04:27:30.672Z,101680.69
2022-10-03T04:30:20.164Z,101688.66
2022-10-03T04:33:07.744Z,101691.47
2022-10-03T04:36:16.255Z,101694.06
2022-10-03T04:38:58.864Z,101686.72
2022-10-03T04:41:45.410Z,101680.47
2022-10-03T04:44:26.951Z,101678.50
2022-10-03T04:47:05.307Z,101679.13
2022-10-03T04:50:02.264Z,101687.31
2022-10-03T04:52:41.731Z,101687.31
2022-10-03T04:55:19.987Z,101689.06
2022-10-03T04:58:48.164Z,101675.69
2022-10-03T05:01:20.487Z,101679.97
2022-10-03T05:04:25.213Z,101673.84
2022-10-03T05:07:11.987Z,101666.75
2022-10-03T05:10:10.269Z,101665.28
2022-10-03T05:12:57.485Z,101658.06
2022-10-03T05:15:36.185Z,101666.00
2022-10-03T05:18:38.352Z,101667.63
2022-10-03T05:21:45.781Z,101673.34
2022-10-03T05:24:59.773Z,101661.84
2022-10-03T05:27:41.256Z,101662.69
2022-10-03T05:30:17.260Z,101664.81
2022-10-03T05:32:51.254Z,101666.50
2022-10-03T05:35:51.543Z,101666.63
2022-10-03T05:38:47.701Z,101662.22
2022-10-03T05:41:17.179Z,101657.47
2022-10-03T05:44:05.729Z,101660.88
2022-10-03T05:46:41.280Z,101658.19
2022-10-03T05:49:55.519Z,101649.22
2022-10-03T05:52:50.545Z,101648.03
2022-10-03T05:55:55.812Z,101645.47
2022-10-03T05:58:40.469Z,101645.97
2022-10-03T06:02:07.003Z,101640.91
2022-10-03T06:04:53.583Z,101644.97
2022-10-03T06:07:43.143Z,101646.44
2022-10-03T06:10:51.200Z,101653.44
2022-10-03T06:14:00.261Z,101647.16
2022-10-03T06:17:26.585Z,101640.81
2022-10-03T06:20:15.132Z,101639.34
2022-10-03T06:23:54.545Z,101637.88
2022-10-03T06:26:37.659Z,101633.09
2022-10-03T06:30:00.417Z,101633.22
2022-10-03T06:33:02.232Z,101626.84
2022-10-03T06:35:57.179Z,101616.69
2022-10-03T06:38:43.195Z,101615.34
2022-10-03T06:42:00.319Z,101609.72
2022-10-03T06:45:07.193Z,101626.34
2022-10-03T06:48:28.407Z,101621.44
2022-10-03T06:51:46.583Z,101622.91
2022-10-03T06:54:37.764Z,101622.66
2022-10-03T06:58:01.797Z,101627.53
2022-10-03T07:00:43.264Z,101628.03
2022-10-03T07:04:07.237Z,101625.09
2022-10-03T07:07:02.311Z,101632.78
2022-10-03T07:09:54.396Z,101635.09
2022-10-03T07:12:49.096Z,101629.69
2022-10-03T07:19:22.949Z,101633.63
2022-10-03T07:22:42.997Z,101627.13
2022-10-03T07:25:27.809Z,101637.53
2022-10-03T07:28:26.177Z,101632.50
2022-10-03T07:31:13.279Z,101631.97
2022-10-03T07:34:13.729Z,101626.91
2022-10-03T07:37:39.701Z,101626.13
2022-10-03T07:41:22.247Z,101624.75
2022-10-03T07:44:06.817Z,101628.53
2022-10-03T07:46:55.661Z,101622.06
2022-10-03T07:49:52.305Z,101628.53
2022-10-03T07:52:46.539Z,101625.53
2022-10-03T07:55:47.055Z,101624.56
2022-10-03T07:58:26.370Z,101620.63
2022-10-03T08:01:11.532Z,101626.28
2022-10-03T08:04:10.807Z,101621.91
2022-10-03T08:06:44.315Z,101620.19
2022-10-03T08:09:38.752Z,101624.59
2022-10-03T08:12:44.002Z,101620.06
2022-10-03T08:15:29.363Z,101614.03
2022-10-03T08:17:58.872Z,101606.22
2022-10-03T08:21:01.586Z,101610.69
2022-10-03T08:23:53.126Z,101613.13
2022-10-03T08:26:28.512Z,101603.78
2022-10-03T08:29:46.316Z,101614.56
2022-10-03T08:32:22.664Z,101608.75
2022-10-03T08:35:27.027Z,101614.53
2022-10-03T08:38:15.784Z,101615.97
2022-10-03T08:41:39.937Z,101616.66
2022-10-03T08:44:30.232Z,101622.63
2022-10-03T08:47:47.015Z,101613.84
2022-10-03T08:50:49.687Z,101610.34
2022-10-03T08:53:50.570Z,101613.59
2022-10-03T08:57:22.015Z,101618.53
2022-10-03T09:00:13.650Z,101612.19
2022-10-03T09:03:34.953Z,101606.66
2022-10-03T09:06:35.670Z,101606.88
2022-10-03T09:09:34.341Z,101615.09
2022-10-03T09:12:46.367Z,101615.50
2022-10-03T09:16:08.333Z,101606.41
2022-10-03T09:19:12.520Z,101607.19
2022-10-03T09:22:34.840Z,101602.81
2022-10-03T09:25:16.485Z,101600.16
2022-10-03T09:28:04.444Z,101598.19
2022-10-03T09:31:13.908Z,101595.09
2022-10-03T09:34:11.528Z,101593.28
2022-10-03T09:37:22.928Z,101590.75
2022-10-03T09:40:40.747Z,101582.94
2022-10-03T09:43:45.994Z,101589.75
2022-10-03T09:46:28.048Z,101580.72
2022-10-03T09:49:39.774Z,101576.28
2022-10-03T09:52:33.154Z,101571.13
2022-10-03T09:55:37.021Z,101578.97
2022-10-03T09:58:56.053Z,101573.34
2022-10-03T10:02:23.294Z,101572.97
2022-10-03T10:05:12.725Z,101559.25
2022-10-03T10:08:09.020Z,101564.84
2022-10-03T10:10:53.866Z,101561.00
2022-10-03T10:14:09.687Z,101550.91
2022-10-03T10:17:18.425Z,101551.84
2022-10-03T10:20:19.250Z,101551.59
2022-10-03T10:23:11.483Z,101554.78
2022-10-03T10:25:53.016Z,101537.09
2022-10-03T10:29:27.347Z,101542.50
2022-10-03T10:32:44.837Z,101540.38
2022-10-03T10:35:39.272Z,101531.59
2022-10-03T10:38:18.320Z,101540.00
2022-10-03T10:41:25.138Z,101542.66
2022-10-03T10:44:29.225Z,101541.44
2022-10-03T10:47:54.489Z,101542.44
2022-10-03T10:51:05.382Z,101533.19
2022-10-03T10:54:15.251Z,101536.59
2022-10-03T10:57:15.588Z,101531.22
2022-10-03T10:59:42.281Z,101523.31
2022-10-03T11:02:18.293Z,101522.47
2022-10-03T11:04:54.362Z,101514.94
2022-10-03T11:08:04.408Z,101509.47
2022-10-03T11:10:54.905Z,101502.28
2022-10-03T11:14:18.228Z,101497.69
2022-10-03T11:17:19.012Z,101499.84
2022-10-03T11:20:32.353Z,101491.47
2022-10-03T11:23:28.155Z,101488.81
2022-10-03T11:26:55.220Z,101485.34
2022-10-03T11:30:18.032Z,101487.00
2022-10-03T11:33:41.481Z,101474.47
2022-10-03T11:36:48.353Z,101467.00
2022-10-03T11:39:42.264Z,101472.00
2022-10-03T11:42:39.922Z,101462.00
2022-10-03T11:45:26.173Z,101451.75
2022-10-03T11:48:14.938Z,101455.47
2022-10-03T11:51:03.297Z,101440.28
2022-10-03T11:53:47.218Z,101428.81
2022-10-03T11:56:39.234Z,101437.53
2022-10-03T11:59:31.593Z,101431.94
2022-10-03T12:02:14.705Z,101436.25
2022-10-03T12:05:07.948Z,101429.13
2022-10-03T12:08:42.093Z,101423.09
2022-10-03T12:11:24.502Z,101420.59
2022-10-03T12:14:11.549Z,101419.13
2022-10-03T12:16:38.675Z,101415.19
2022-10-03T12:19:32.713Z,101406.34
2022-10-03T12:22:17.829Z,101409.94
2022-10-03T12:24:45.820Z,101409.94
2022-10-03T12:27:21.204Z,101402.38
2022-10-03T12:29:58.920Z,101402.38
2022-10-03T12:32:40.725Z,101399.19
2022-10-03T12:35:22.702Z,101407.97
2022-10-03T12:38:20.009Z,101397.81
2022-10-03T12:41:02.896Z,101396.78
2022-10-03T12:43:50.147Z,101397.53
2022-10-03T12:46:33.718Z,101391.44
2022-10-03T12:49:22.344Z,101385.97
2022-10-03T12:51:57.969Z,101378.19
2022-10-03T12:54:44.436Z,101396.34
2022-10-03T12:57:40.527Z,101385.78
2022-10-03T13:00:22.757Z,101382.56
2022-10-03T13:03:17.597Z,101366.97
2022-10-03T13:06:11.828Z,101369.53
2022-10-03T13:08:56.760Z,101363.22
2022-10-03T13:11:40.692Z,101358.81
2022-10-03T13:14:34.260Z,101366.19
2022-10-03T13:17:47.116Z,101356.88
2022-10-03T13:20:30.102Z,101356.88
2022-10-03T13:23:21.769Z,101352.25
2022-10-03T13:26:36.294Z,101360.22
2022-10-03T13:29:30.242Z,101354.53
2022-10-03T13:32:01.515Z,101352.59
2022-10-03T13:34:45.593Z,101337.63
2022-10-03T13:37:24.429Z,101343.31
2022-10-03T13:39:54.789Z,101340.84
2022-10-03T13:42:31.916Z,101330.91
2022-10-03T13:45:07.002Z,101327.13
2022-10-03T13:47:44.043Z,101332.44
2022-10-03T13:50:20.209Z,101324.84
2022-10-03T13:53:12.259Z,101318.09
2022-10-03T13:55:42.420Z,101321.72
2022-10-03T13:58:12.273Z,101315.22
2022-10-03T14:01:13.890Z,101315.59
2022-10-03T14:04:08.407Z,101316.63
2022-10-03T14:06:56.238Z,101310.13
2022-10-03T14:10:01.125Z,101299.78
2022-10-03T14:12:55.897Z,101298.28
2022-10-03T14:15:36.421Z,101295.53
2022-10-03T14:18:34.133Z,101296.78
2022-10-03T14:21:45.044Z,101295.50
2022-10-03T14:24:46.212Z,101292.31
2022-10-03T14:27:47.155Z,101290.81
2022-10-03T14:30:29.610Z,101286.97
2022-10-03T14:33:40.554Z,101283.56
2022-10-03T14:36:30.367Z,101282.81
2022-10-03T14:39:25.987Z,101289.31
2022-10-03T14:41:52.720Z,101289.31
2022-10-03T14:44:42.691Z,101293.13
2022-10-03T14:47:16.925Z,101283.84
2022-10-03T14:50:00.141Z,101280.47
2022-10-03T14:52:50.970Z,101281.31
2022-10-03T14:55:29.925Z,101273.97
2022-10-03T14:58:21.664Z,101263.97
2022-10-03T15:00:55.483Z,101264.88
2022-10-03T15:03:31.158Z,101266.16
2022-10-03T15:06:13.301Z,101260.28
2022-10-03T15:08:54.128Z,101261.94
2022-10-03T15:11:32.919Z,101256.44
2022-10-03T15:14:05.220Z,101254.34
2022-10-03T15:16:55.585Z,101244.69
2022-10-03T15:19:42.708Z,101243.00
2022-10-03T15:22:39.761Z,101235.78
2022-10-03T15:25:22.983Z,101246.34
2022-10-03T15:27:54.176Z,101229.09
2022-10-03T15:30:32.002Z,101223.41
2022-10-03T15:33:29.193Z,101228.03
2022-10-03T15:36:14.765Z,101226.78
2022-10-03T15:38:44.724Z,101230.13
2022-10-03T15:41:28.904Z,101230.19
2022-10-03T15:44:05.003Z,101217.28
2022-10-03T15:46:43.008Z,101206.94
2022-10-03T15:49:23.733Z,101203.50
2022-10-03T15:51:50.875Z,101208.41
2022-10-03T15:54:24.108Z,101197.44
2022-10-03T15:56:57.178Z,101201.41
2022-10-03T15:59:45.039Z,101206.03
2022-10-03T16:03:00.002Z,101202.41
2022-10-03T16:05:27.724Z,101193.09
2022-10-03T16:08:17.152Z,101198.16
2022-10-03T16:10:59.990Z,101191.38
2022-10-03T16:13:49.237Z,101187.13
2022-10-03T16:16:40.852Z,101178.84
2022-10-03T16:19:13.607Z,101184.63
2022-10-03T16:22:18.983Z,101184.91
2022-10-03T16:25:16.345Z,101181.53
2022-10-03T16:27:53.364Z,101179.66
2022-10-03T16:30:24.686Z,101175.66
2022-10-03T16:33:00.687Z,101176.06
2022-10-03T16:35:43.277Z,101167.22
2022-10-03T16:38:46.503Z,101166.56
2022-10-03T16:41:34.301Z,101157.06
2022-10-03T16:44:10.204Z,101154.91
2022-10-03T16:46:40.140Z,101152.41
2022-10-03T16:49:54.523Z,101147.72
2022-10-03T16:52:31.373Z,101156.91
2022-10-03T16:55:06.325Z,101152.25
2022-10-03T16:57:45.778Z,101160.63
2022-10-03T17:00:56.279Z,101159.97
2022-10-03T17:04:17.118Z,101160.06
2022-10-03T17:06:50.353Z,101156.66
2022-10-03T17:10:04.017Z,101159.31
2022-10-03T17:12:38.527Z,101155.69
2022-10-03T17:15:14.862Z,101149.31
2022-10-03T17:17:49.037Z,101141.88
2022-10-03T17:20:37.621Z,101139.94
2022-10-03T17:23:13.625Z,101139.41
2022-10-03T17:26:05.868Z,101134.69
2022-10-03T17:28:59.167Z,101135.47
2022-10-03T17:31:36.047Z,101132.88
2022-10-03T17:34:22.655Z,101138.06
2022-10-03T17:37:39.097Z,101131.84
2022-10-03T17:40:55.165Z,101128.41
2022-10-03T17:44:05.986Z,101128.13
2022-10-03T17:46:57.945Z,101130.41
2022-10-03T17:49:43.157Z,101132.28
2022-10-03T17:52:20.846Z,101124.47
2022-10-03T17:54:56.724Z,101125.53
2022-10-03T17:57:37.001Z,101116.84
2022-10-03T18:00:18.644Z,101117.41
2022-10-03T18:03:04.121Z,101117.16
2022-10-03T18:05:55.784Z,101119.97
2022-10-03T18:08:32.373Z,101111.31
2022-10-03T18:11:02.694Z,101107.28
2022-10-03T18:13:50.448Z,101100.03
2022-10-03T18:16:43.368Z,101093.63
2022-10-03T18:19:58.039Z,101098.22
2022-10-03T18:22:37.172Z,101098.41
2022-10-03T18:25:40.067Z,101092.50
2022-10-03T18:28:18.873Z,101087.78
2022-10-03T18:31:07.036Z,101090.59
2022-10-03T18:33:51.069Z,101090.47
2022-10-03T18:36:30.966Z,101084.38
2022-10-03T18:39:15.700Z,101085.31
2022-10-03T18:41:49.791Z,101081.25
2022-10-03T18:44:21.073Z,101076.75
2022-10-03T18:47:12.788Z,101078.44
2022-10-03T18:49:45.719Z,101079.66
2022-10-03T18:52:22.890Z,101069.50
2022-10-03T18:55:11.913Z,101056.22
2022-10-03T18:57:54.441Z,101050.78
2022-10-03T19:00:28.619Z,101062.72
2022-10-03T19:03:03.051Z,101058.94
2022-10-03T19:05:37.914Z,101063.75
2022-10-03T19:08:50.445Z,101072.31
2022-10-03T19:11:41.646Z,101072.31
2022-10-03T19:14:15.859Z,101075.38
2022-10-03T19:17:14.412Z,101073.00
2022-10-03T19:19:59.205Z,101071.16
2022-10-03T19:22:41.217Z,101063.16
2022-10-03T19:25:21.327Z,101077.97
2022-10-03T19:28:33.826Z,101085.69
2022-10-03T19:31:17.884Z,101082.97
2022-10-03T19:33:53.374Z,101080.78
2022-10-03T19:36:26.323Z,101061.22
2022-10-03T19:38:54.922Z,101057.19
2022-10-03T19:41:29.388Z,101054.63
2022-10-03T19:44:03.398Z,101047.38
2022-10-03T19:47:20.582Z,101042.31
2022-10-03T19:50:23.614Z,101031.41
2022-10-03T19:52:51.048Z,101030.06
2022-10-03T19:55:41.148Z,101033.84
2022-10-03T19:58:08.044Z,101040.31
2022-10-03T20:00:37.719Z,101035.03
2022-10-03T20:03:23.936Z,101027.41
2022-10-03T20:06:04.261Z,101019.59
2022-10-03T20:08:42.003Z,101007.03
2022-10-03T20:11:21.869Z,101016.22
2022-10-03T20:13:51.177Z,101010.13
2022-10-03T20:16:22.915Z,101005.69
2022-10-03T20:18:55.501Z,101007.53
2022-10-03T20:21:27.346Z,101002.47
2022-10-03T20:23:56.003Z,100995.16
2022-10-03T20:26:34.429Z,100980.53
2022-10-03T20:29:17.322Z,100978.81
2022-10-03T20:31:45.312Z,100987.63
2022-10-03T20:34:16.941Z,100992.06
2022-10-03T20:36:51.064Z,100999.88
2022-10-03T20:39:31.730Z,101001.59
2022-10-03T20:42:04.127Z,100995.09
2022-10-03T20:44:58.025Z,100991.38
2022-10-03T20:47:56.187Z,100975.38
2022-10-03T20:50:40.941Z,100978.06
2022-10-03T20:53:23.490Z,100984.34
2022-10-03T20:56:06.118Z,100972.22
2022-10-03T20:58:38.815Z,100963.03
2022-10-03T21:01:17.915Z,100959.25
2022-10-03T21:04:21.302Z,100960.13
2022-10-03T21:07:06.685Z,100954.69
2022-10-03T21:09:48.925Z,100962.66
2022-10-03T21:12:24.901Z,100971.50
2022-10-03T21:15:00.380Z,100962.28
2022-10-03T21:17:28.042Z,100957.31
2022-10-03T21:20:01.683Z,100958.56
2022-10-03T21:22:30.791Z,100947.00
2022-10-03T21:25:05.948Z,100936.75
2022-10-03T21:27:34.705Z,100935.91
2022-10-03T21:30:18.131Z,100933.16
2022-10-03T21:33:00.248Z,100937.78
2022-10-03T21:35:32.857Z,100942.75
2022-10-03T21:38:22.133Z,100945.94
2022-10-03T21:40:54.895Z,100946.13
2022-10-03T21:43:44.923Z,100946.31
2022-10-03T21:46:32.434Z,100951.41
2022-10-03T21:49:25.035Z,100956.84
2022-10-03T21:52:10.177Z,100950.56
2022-10-03T21:55:16.960Z,100948.69
2022-10-03T21:58:07.675Z,100938.34
2022-10-03T22:01:39.452Z,100926.09
2022-10-03T22:04:21.456Z,100913.63
2022-10-03T22:07:14.650Z,100918.81
2022-10-03T22:09:51.170Z,100923.59
2022-10-03T22:12:18.420Z,100929.31
2022-10-03T22:15:17.216Z,100915.69
2022-10-03T22:18:19.605Z,100900.41
2022-10-03T22:21:26.653Z,100897.03
2022-10-03T22:25:00.243Z,100895.41
2022-10-03T22:27:44.821Z,100904.31
2022-10-03T22:30:17.034Z,100901.81
2022-10-03T22:33:13.489Z,100904.91
2022-10-03T22:36:00.232Z,100901.34
2022-10-03T22:38:30.938Z,100905.47
2022-10-03T22:41:04.794Z,100906.47
2022-10-03T22:43:36.546Z,100904.94
2022-10-03T22:46:06.027Z,100904.94
2022-10-03T22:48:50.343Z,100914.88
2022-10-03T22:51:21.099Z,100909.03
2022-10-03T22:53:59.838Z,100906.81
2022-10-03T22:56:45.437Z,100908.88
2022-10-03T22:59:27.244Z,100903.56
2022-10-03T23:01:59.581Z,100905.25
2022-10-03T23:04:36.014Z,100890.81
2022-10-03T23:07:02.754Z,100880.69
2022-10-03T23:09:52.139Z,100875.59
2022-10-03T23:12:22.878Z,100859.91
2022-10-03T23:14:53.620Z,100864.88
2022-10-03T23:17:57.462Z,100862.75
2022-10-03T23:20:48.753Z,100858.97
2022-10-03T23:23:27.094Z,100853.34
2022-10-03T23:26:11.822Z,100858.31
2022-10-03T23:29:00.342Z,100849.97
2022-10-03T23:31:56.892Z,100856.63
2022-10-03T23:34:32.906Z,100848.06
2022-10-03T23:37:13.345Z,100848.06
2022-10-03T23:40:07.395Z,100840.97
2022-10-03T23:42:45.777Z,100829.41
2022-10-03T23:45:17.462Z,100828.25
2022-10-03T23:47:56.809Z,100825.34
2022-10-03T23:50:48.036Z,100819.91
2022-10-03T23:53:27.970Z,100826.94
2022-10-03T23:55:55.893Z,100818.06
2022-10-03T23:58:35.382Z,100812.63
